createdAt,value
2018-09-05T00:00:31.155Z,13.20
2018-09-05T00:03:00.128Z,13.07
2018-09-05T00:05:29.072Z,12.77
2018-09-05T00:07:58.369Z,12.73
2018-09-05T00:10:27.681Z,12.50
2018-09-05T00:12:56.867Z,12.77
2018-09-05T00:15:25.939Z,12.57
2018-09-05T00:17:55.201Z,12.13
2018-09-05T00:20:24.223Z,12.23
2018-09-05T00:22:53.593Z,12.57
2018-09-05T00:25:22.591Z,13.73
2018-09-05T00:27:51.974Z,14.20
2018-09-05T00:30:21.187Z,14.17
2018-09-05T00:32:50.173Z,15.07
2018-09-05T00:35:19.476Z,14.43
2018-09-05T00:37:48.664Z,14.67
2018-09-05T00:40:17.961Z,15.37
2018-09-05T00:42:47.472Z,14.93
2018-09-05T00:45:16.697Z,15.70
2018-09-05T00:47:45.888Z,14.93
2018-09-05T00:50:15.092Z,15.93
2018-09-05T00:52:44.364Z,15.20
2018-09-05T00:55:13.431Z,15.90
2018-09-05T00:57:42.817Z,14.80
2018-09-05T01:00:12.064Z,15.97
2018-09-05T01:02:41.503Z,15.93
2018-09-05T01:05:10.752Z,15.87
2018-09-05T01:07:39.990Z,15.73
2018-09-05T01:10:09.430Z,16.13
2018-09-05T01:12:38.338Z,15.57
2018-09-05T01:15:07.551Z,15.33
2018-09-05T01:17:36.936Z,15.17
2018-09-05T01:20:06.260Z,15.97
2018-09-05T01:22:35.627Z,14.87
2018-09-05T01:25:04.858Z,14.60
2018-09-05T01:27:33.994Z,15.60
2018-09-05T01:30:03.099Z,15.30
2018-09-05T01:32:32.344Z,14.00
2018-09-05T01:35:01.580Z,13.33
2018-09-05T01:37:30.776Z,13.43
2018-09-05T01:39:59.725Z,13.80
2018-09-05T01:42:29.059Z,13.30
2018-09-05T01:44:58.060Z,13.80
2018-09-05T01:47:27.357Z,12.97
2018-09-05T01:49:56.557Z,13.17
2018-09-05T01:52:25.703Z,12.70
2018-09-05T01:54:55.015Z,11.87
2018-09-05T01:57:24.221Z,11.27
2018-09-05T01:59:53.250Z,11.40
2018-09-05T02:02:22.456Z,11.23
2018-09-05T02:04:51.776Z,11.03
2018-09-05T02:07:20.671Z,11.57
2018-09-05T02:09:50.131Z,11.50
2018-09-05T02:12:19.308Z,10.60
2018-09-05T02:14:48.527Z,11.30
2018-09-05T02:17:17.710Z,10.43
2018-09-05T02:19:46.924Z,11.90
2018-09-05T02:22:16.452Z,11.07
2018-09-05T02:24:45.959Z,10.37
2018-09-05T02:27:15.420Z,10.67
2018-09-05T02:29:44.570Z,10.70
2018-09-05T02:32:13.801Z,10.23
2018-09-05T02:34:42.864Z,10.23
2018-09-05T02:37:12.218Z,10.03
2018-09-05T02:39:41.528Z,10.63
2018-09-05T02:42:10.813Z,11.47
2018-09-05T02:44:40.108Z,10.77
2018-09-05T02:47:09.507Z,11.47
2018-09-05T02:49:38.749Z,11.70
2018-09-05T02:52:07.708Z,11.83
2018-09-05T02:54:37.095Z,10.70
2018-09-05T02:57:06.435Z,11.50
2018-09-05T02:59:35.738Z,11.53
2018-09-05T03:02:04.707Z,11.00
2018-09-05T03:04:34.131Z,10.77
2018-09-05T03:07:03.273Z,10.80
2018-09-05T03:09:32.385Z,11.50
2018-09-05T03:12:01.736Z,11.07
2018-09-05T03:14:30.719Z,10.97
2018-09-05T03:17:00.151Z,11.00
2018-09-05T03:19:29.620Z,10.80
2018-09-05T03:21:58.672Z,11.30
2018-09-05T03:24:27.808Z,12.97
2018-09-05T03:26:57.203Z,11.03
2018-09-05T03:29:26.547Z,10.07
2018-09-05T03:31:55.889Z,10.83
2018-09-05T03:34:25.264Z,10.40
2018-09-05T03:36:54.612Z,10.40
2018-09-05T03:39:23.568Z,10.77
2018-09-05T03:41:52.694Z,10.63
2018-09-05T03:44:22.003Z,11.23
2018-09-05T03:46:51.317Z,11.17
2018-09-05T03:49:20.517Z,10.33
2018-09-05T03:51:49.803Z,10.90
2018-09-05T03:54:19.087Z,11.57
2018-09-05T03:56:48.116Z,11.00
2018-09-05T03:59:17.628Z,11.10
2018-09-05T04:01:46.897Z,10.67
2018-09-05T04:04:16.187Z,10.27
2018-09-05T04:06:45.482Z,10.20
2018-09-05T04:09:14.876Z,10.13
2018-09-05T04:11:43.770Z,11.10
2018-09-05T04:14:12.951Z,10.57
2018-09-05T04:16:42.280Z,10.50
2018-09-05T04:19:11.628Z,10.90
2018-09-05T04:21:40.779Z,10.87
2018-09-05T04:24:10.164Z,10.20
2018-09-05T04:26:39.361Z,10.13
2018-09-05T04:29:08.837Z,10.53
2018-09-05T04:31:37.707Z,10.77
2018-09-05T04:34:06.999Z,10.20
2018-09-05T04:36:36.432Z,11.83
2018-09-05T04:39:07.768Z,11.47
2018-09-05T04:41:37.003Z,10.93
2018-09-05T04:44:06.477Z,10.33
2018-09-05T04:46:35.879Z,9.93
2018-09-05T04:49:04.963Z,9.90
2018-09-05T04:51:35.661Z,10.93
2018-09-05T04:54:05.695Z,11.40
2018-09-05T04:56:35.096Z,11.67
2018-09-05T04:59:04.241Z,11.53
2018-09-05T05:01:33.528Z,12.00
2018-09-05T05:04:02.522Z,11.07
2018-09-05T05:06:31.717Z,11.47
2018-09-05T05:09:01.084Z,12.10
2018-09-05T05:11:30.175Z,13.00
2018-09-05T05:13:59.174Z,12.83
2018-09-05T05:16:28.201Z,12.80
2018-09-05T05:18:57.712Z,11.73
2018-09-05T05:21:27.066Z,9.37
2018-09-05T05:23:56.289Z,8.53
2018-09-05T05:26:25.253Z,8.23
2018-09-05T05:28:54.372Z,8.07
2018-09-05T05:31:23.388Z,8.80
2018-09-05T05:33:52.793Z,8.43
2018-09-05T05:36:22.032Z,8.40
2018-09-05T05:38:51.237Z,7.47
2018-09-05T05:41:20.660Z,7.50
2018-09-05T05:43:50.017Z,7.77
2018-09-05T05:46:19.303Z,7.50
2018-09-05T05:48:48.419Z,7.50
2018-09-05T05:51:17.272Z,8.03
2018-09-05T05:53:46.348Z,7.60
2018-09-05T05:56:15.661Z,7.90
2018-09-05T05:58:44.791Z,7.50
2018-09-05T06:01:14.035Z,7.93
2018-09-05T06:03:43.185Z,7.73
2018-09-05T06:06:12.721Z,7.40
2018-09-05T06:08:41.951Z,7.80
2018-09-05T06:11:11.397Z,6.93
2018-09-05T06:13:40.336Z,7.20
2018-09-05T06:16:09.641Z,7.53
2018-09-05T06:18:38.960Z,6.57
2018-09-05T06:21:08.360Z,5.77
2018-09-05T06:23:37.455Z,6.53
2018-09-05T06:26:07.110Z,6.40
2018-09-05T06:28:36.496Z,5.97
2018-09-05T06:31:06.042Z,5.47
2018-09-05T06:33:34.865Z,5.93
2018-09-05T06:36:04.244Z,5.47
2018-09-05T06:38:33.648Z,5.77
2018-09-05T06:41:02.952Z,5.50
2018-09-05T06:43:32.198Z,5.40
2018-09-05T06:46:01.093Z,5.90
2018-09-05T06:48:30.360Z,5.17
2018-09-05T06:51:03.280Z,5.90
2018-09-05T06:53:32.519Z,5.50
2018-09-05T06:56:01.791Z,5.77
2018-09-05T06:58:30.921Z,6.43
2018-09-05T07:01:00.388Z,6.00
2018-09-05T07:03:29.835Z,5.10
2018-09-05T07:05:59.025Z,5.40
2018-09-05T07:08:28.351Z,5.77
2018-09-05T07:10:57.611Z,5.23
2018-09-05T07:13:26.736Z,5.20
2018-09-05T07:15:55.852Z,5.37
2018-09-05T07:18:25.071Z,4.80
2018-09-05T07:21:05.682Z,4.40
2018-09-05T07:23:23.268Z,5.10
2018-09-05T07:25:52.272Z,4.90
2018-09-05T07:28:21.462Z,5.13
2018-09-05T07:30:50.687Z,4.93
2018-09-05T07:33:20.064Z,5.10
2018-09-05T07:35:49.339Z,5.17
2018-09-05T07:38:18.557Z,5.20
2018-09-05T07:40:47.875Z,4.97
2018-09-05T07:43:16.851Z,4.50
2018-09-05T07:45:46.248Z,4.47
2018-09-05T07:48:15.356Z,4.47
2018-09-05T07:50:44.599Z,3.67
2018-09-05T07:53:13.686Z,4.00
2018-09-05T07:55:42.698Z,4.73
2018-09-05T07:58:11.591Z,4.60
2018-09-05T08:00:40.635Z,6.27
2018-09-05T08:03:10.116Z,4.60
2018-09-05T08:05:39.240Z,4.13
2018-09-05T08:08:08.197Z,4.03
2018-09-05T08:10:37.640Z,3.90
2018-09-05T08:13:06.919Z,3.63
2018-09-05T08:15:36.312Z,3.73
2018-09-05T08:18:05.786Z,3.60
2018-09-05T08:20:35.113Z,3.73
2018-09-05T08:23:04.140Z,3.90
2018-09-05T08:25:33.392Z,3.33
2018-09-05T08:28:02.623Z,3.30
2018-09-05T08:30:31.867Z,3.30
2018-09-05T08:33:00.984Z,3.40
2018-09-05T08:35:30.665Z,3.47
2018-09-05T08:37:59.706Z,3.50
2018-09-05T08:40:29.037Z,3.20
2018-09-05T08:42:58.449Z,3.80
2018-09-05T08:45:28.095Z,3.70
2018-09-05T08:47:56.846Z,3.83
2018-09-05T08:50:26.138Z,3.67
2018-09-05T08:52:55.436Z,3.37
2018-09-05T08:55:24.437Z,3.10
2018-09-05T08:57:53.567Z,3.57
2018-09-05T09:00:22.771Z,3.50
2018-09-05T09:02:51.747Z,3.57
2018-09-05T09:05:20.815Z,3.37
2018-09-05T09:07:49.863Z,3.47
2018-09-05T09:10:19.431Z,3.07
2018-09-05T09:12:48.632Z,3.37
2018-09-05T09:15:17.902Z,3.30
2018-09-05T09:17:46.995Z,3.30
2018-09-05T09:20:16.044Z,3.10
2018-09-05T09:22:45.049Z,3.20
2018-09-05T09:25:14.517Z,3.57
2018-09-05T09:27:43.919Z,3.03
2018-09-05T09:30:13.300Z,3.03
2018-09-05T09:32:42.567Z,3.50
2018-09-05T09:35:11.888Z,2.77
2018-09-05T09:37:41.325Z,3.20
2018-09-05T09:40:10.636Z,3.17
2018-09-05T09:42:39.877Z,3.20
2018-09-05T09:45:09.273Z,3.30
2018-09-05T09:47:38.387Z,3.17
2018-09-05T09:50:07.640Z,2.73
2018-09-05T09:52:39.237Z,2.90
2018-09-05T09:55:09.388Z,3.13
2018-09-05T09:57:39.007Z,3.00
2018-09-05T10:00:08.620Z,3.10
2018-09-05T10:02:42.927Z,2.70
2018-09-05T10:05:17.221Z,3.07
2018-09-05T10:08:51.149Z,3.03
2018-09-05T10:11:24.542Z,2.70
2018-09-05T10:13:58.946Z,2.93
2018-09-05T10:16:33.391Z,2.53
2018-09-05T10:19:06.715Z,2.73
2018-09-05T10:21:35.744Z,2.60
2018-09-05T10:24:36.920Z,2.47
2018-09-05T10:27:06.228Z,2.60
2018-09-05T10:29:35.712Z,2.50
2018-09-05T10:32:04.944Z,2.67
2018-09-05T10:34:34.151Z,2.80
2018-09-05T10:37:03.555Z,3.40
2018-09-05T10:39:32.832Z,3.83
2018-09-05T10:42:02.055Z,4.10
2018-09-05T10:44:31.473Z,3.60
2018-09-05T10:47:00.906Z,3.10
2018-09-05T10:49:30.301Z,3.43
2018-09-05T10:52:07.072Z,2.70
2018-09-05T10:54:36.239Z,2.60
2018-09-05T10:57:05.749Z,2.67
2018-09-05T10:59:34.934Z,2.90
2018-09-05T11:02:04.097Z,2.90
2018-09-05T11:04:33.294Z,2.73
2018-09-05T11:07:02.233Z,2.40
2018-09-05T11:09:31.504Z,2.23
2018-09-05T11:12:00.758Z,2.20
2018-09-05T11:14:30.160Z,2.10
2018-09-05T11:16:59.507Z,2.20
2018-09-05T11:19:28.451Z,2.42
2018-09-05T11:21:57.711Z,2.30
2018-09-05T11:24:26.936Z,2.70
2018-09-05T11:26:56.204Z,1.93
2018-09-05T11:29:25.496Z,2.20
2018-09-05T11:31:54.851Z,2.27
2018-09-05T11:34:23.737Z,2.07
2018-09-05T11:36:52.998Z,2.50
2018-09-05T11:39:22.423Z,2.30
2018-09-05T11:41:51.680Z,2.43
2018-09-05T11:44:21.024Z,2.27
2018-09-05T11:46:49.915Z,2.60
2018-09-05T11:49:19.429Z,2.10
2018-09-05T11:51:48.639Z,2.20
2018-09-05T11:54:17.883Z,2.00
2018-09-05T11:56:47.243Z,1.80
2018-09-05T11:59:16.621Z,2.00
2018-09-05T12:01:45.731Z,1.90
2018-09-05T12:04:14.995Z,1.77
2018-09-05T12:06:44.523Z,2.10
2018-09-05T12:09:14.063Z,1.70
2018-09-05T12:11:43.004Z,5.73
2018-09-05T12:14:12.277Z,6.33
2018-09-05T12:16:41.813Z,4.40
2018-09-05T12:19:11.008Z,4.23
2018-09-05T12:21:40.271Z,4.00
2018-09-05T12:24:09.444Z,4.07
2018-09-05T12:26:38.426Z,5.00
2018-09-05T12:29:10.544Z,4.90
2018-09-05T12:31:40.308Z,3.50
2018-09-05T12:34:09.153Z,4.10
2018-09-05T12:36:38.440Z,3.40
2018-09-05T12:39:10.000Z,3.23
2018-09-05T12:41:39.488Z,3.50
2018-09-05T12:44:08.759Z,3.60
2018-09-05T12:46:38.265Z,3.73
2018-09-05T12:49:07.604Z,3.60
2018-09-05T12:51:36.651Z,3.83
2018-09-05T12:54:06.396Z,3.47
2018-09-05T12:56:35.729Z,3.30
2018-09-05T12:59:05.116Z,3.20
2018-09-05T13:01:34.588Z,3.77
2018-09-05T13:04:03.917Z,3.50
2018-09-05T13:06:32.971Z,3.60
2018-09-05T13:09:02.206Z,3.67
2018-09-05T13:11:31.197Z,3.27
2018-09-05T13:14:00.461Z,3.33
2018-09-05T13:16:29.822Z,3.40
2018-09-05T13:18:59.208Z,3.90
2018-09-05T13:21:28.553Z,3.40
2018-09-05T13:23:57.874Z,3.57
2018-09-05T13:26:27.051Z,3.83
2018-09-05T13:28:56.255Z,3.60
2018-09-05T13:31:25.525Z,3.90
2018-09-05T13:33:54.707Z,4.07
2018-09-05T13:36:23.748Z,4.00
2018-09-05T13:38:52.991Z,20.97
2018-09-05T13:41:22.142Z,14.53
2018-09-05T13:43:51.345Z,7.80
2018-09-05T13:46:20.747Z,5.40
2018-09-05T13:48:49.844Z,4.33
2018-09-05T13:51:18.997Z,3.57
2018-09-05T13:53:48.027Z,5.83
2018-09-05T13:56:17.187Z,4.90
2018-09-05T13:58:46.430Z,4.03
2018-09-05T14:01:15.757Z,3.27
2018-09-05T14:03:44.728Z,3.90
2018-09-05T14:06:14.009Z,4.63
2018-09-05T14:08:43.072Z,4.60
2018-09-05T14:11:12.474Z,3.70
2018-09-05T14:13:41.898Z,3.00
2018-09-05T14:16:10.979Z,3.67
2018-09-05T14:18:40.232Z,3.57
2018-09-05T14:21:09.556Z,3.90
2018-09-05T14:23:38.927Z,4.00
2018-09-05T14:26:08.296Z,4.10
2018-09-05T14:28:37.564Z,4.40
2018-09-05T14:31:06.887Z,3.90
2018-09-05T14:33:36.287Z,4.00
2018-09-05T14:36:05.636Z,4.17
2018-09-05T14:38:34.827Z,5.77
2018-09-05T14:41:03.967Z,4.30
2018-09-05T14:43:32.958Z,3.63
2018-09-05T14:46:02.268Z,3.70
2018-09-05T14:48:31.267Z,4.37
2018-09-05T14:51:00.455Z,4.30
2018-09-05T14:53:29.719Z,4.10
2018-09-05T14:55:59.067Z,4.23
2018-09-05T14:58:28.410Z,4.27
2018-09-05T15:00:57.904Z,4.67
2018-09-05T15:03:27.208Z,5.27
2018-09-05T15:05:56.671Z,5.03
2018-09-05T15:08:26.119Z,4.13
2018-09-05T15:10:55.132Z,4.40
2018-09-05T15:13:24.363Z,4.20
2018-09-05T15:15:53.761Z,4.70
2018-09-05T15:18:22.995Z,3.90
2018-09-05T15:20:52.135Z,4.20
2018-09-05T15:23:21.356Z,4.00
2018-09-05T15:25:50.303Z,3.77
2018-09-05T15:28:19.580Z,3.97
2018-09-05T15:30:48.839Z,4.13
2018-09-05T15:33:18.131Z,3.60
2018-09-05T15:35:47.448Z,4.07
2018-09-05T15:38:16.650Z,3.97
2018-09-05T15:40:46.101Z,3.83
2018-09-05T15:43:15.379Z,3.90
2018-09-05T15:45:44.854Z,3.87
2018-09-05T15:48:14.187Z,3.70
2018-09-05T15:50:43.535Z,3.50
2018-09-05T15:53:12.800Z,3.77
2018-09-05T15:55:41.981Z,3.97
2018-09-05T15:58:11.336Z,3.83
2018-09-05T16:00:40.556Z,3.90
2018-09-05T16:03:09.971Z,3.63
2018-09-05T16:05:39.168Z,4.13
2018-09-05T16:08:08.913Z,3.80
2018-09-05T16:10:38.568Z,3.83
2018-09-05T16:13:07.843Z,3.33
2018-09-05T16:15:37.175Z,3.80
2018-09-05T16:18:06.479Z,3.73
2018-09-05T16:20:35.688Z,3.60
2018-09-05T16:23:05.147Z,3.47
2018-09-05T16:25:34.171Z,3.70
2018-09-05T16:28:03.121Z,3.97
2018-09-05T16:30:32.373Z,4.10
2018-09-05T16:33:01.769Z,3.73
2018-09-05T16:35:31.084Z,3.43
2018-09-05T16:38:00.387Z,4.00
2018-09-05T16:40:29.830Z,3.70
2018-09-05T16:42:59.204Z,4.07
2018-09-05T16:45:29.123Z,4.07
2018-09-05T16:47:58.659Z,4.60
2018-09-05T16:50:27.799Z,4.70
2018-09-05T16:52:56.937Z,5.33
2018-09-05T16:55:26.388Z,5.00
2018-09-05T16:57:55.885Z,4.77
2018-09-05T17:00:25.108Z,5.40
2018-09-05T17:02:54.353Z,6.20
2018-09-05T17:05:23.687Z,5.97
2018-09-05T17:07:53.032Z,5.87
2018-09-05T17:10:22.469Z,6.10
2018-09-05T17:12:52.051Z,5.77
2018-09-05T17:15:21.436Z,7.63
2018-09-05T17:17:50.952Z,7.23
2018-09-05T17:20:20.311Z,7.70
2018-09-05T17:22:49.556Z,7.97
2018-09-05T17:25:18.472Z,7.70
2018-09-05T17:27:47.739Z,7.97
2018-09-05T17:30:17.032Z,7.40
2018-09-05T17:32:46.380Z,7.20
2018-09-05T17:35:15.462Z,6.93
2018-09-05T17:37:44.808Z,6.80
2018-09-05T17:40:14.132Z,6.80
2018-09-05T17:42:43.544Z,7.27
2018-09-05T17:45:12.931Z,6.67
2018-09-05T17:47:42.014Z,6.97
2018-09-05T17:50:11.310Z,7.20
2018-09-05T17:52:42.364Z,7.90
2018-09-05T17:55:11.386Z,7.13
2018-09-05T17:57:40.576Z,6.33
2018-09-05T18:00:08.775Z,6.57
2018-09-05T18:02:38.152Z,6.27
2018-09-05T18:05:07.447Z,7.13
2018-09-05T18:07:36.823Z,8.97
2018-09-05T18:10:06.163Z,9.60
2018-09-05T18:12:35.234Z,7.40
2018-09-05T18:15:04.758Z,6.30
2018-09-05T18:17:34.490Z,6.57
2018-09-05T18:20:03.872Z,7.63
2018-09-05T18:22:33.182Z,7.20
2018-09-05T18:25:02.186Z,7.73
2018-09-05T18:27:31.424Z,7.77
2018-09-05T18:30:00.407Z,6.93
2018-09-05T18:32:29.603Z,6.73
2018-09-05T18:34:59.082Z,6.00
2018-09-05T18:37:28.407Z,6.27
2018-09-05T18:39:57.908Z,7.33
2018-09-05T18:42:26.861Z,6.90
2018-09-05T18:44:56.164Z,7.33
2018-09-05T18:47:25.145Z,7.70
2018-09-05T18:49:54.619Z,7.43
2018-09-05T18:52:23.961Z,7.17
2018-09-05T18:54:53.049Z,7.00
2018-09-05T18:57:22.433Z,6.57
2018-09-05T18:59:51.645Z,6.70
2018-09-05T19:02:20.769Z,7.10
2018-09-05T19:04:50.407Z,7.67
2018-09-05T19:07:19.360Z,6.83
2018-09-05T19:09:48.689Z,6.93
2018-09-05T19:12:18.138Z,6.57
2018-09-05T19:14:47.195Z,7.07
2018-09-05T19:17:16.620Z,6.73
2018-09-05T19:19:45.693Z,6.23
2018-09-05T19:22:14.920Z,5.97
2018-09-05T19:24:44.575Z,6.20
2018-09-05T19:27:13.576Z,6.00
2018-09-05T19:29:42.732Z,6.53
2018-09-05T19:32:11.682Z,6.23
2018-09-05T19:34:41.114Z,7.00
2018-09-05T19:37:10.808Z,7.77
2018-09-05T19:39:40.530Z,7.47
2018-09-05T19:42:10.198Z,7.33
2018-09-05T19:44:39.371Z,7.77
2018-09-05T19:47:08.623Z,7.60
2018-09-05T19:49:37.779Z,6.67
2018-09-05T19:52:07.156Z,6.70
2018-09-05T19:54:36.459Z,6.83
2018-09-05T19:57:05.669Z,6.80
2018-09-05T19:59:34.967Z,6.50
2018-09-05T20:02:04.335Z,6.80
2018-09-05T20:04:33.532Z,6.37
2018-09-05T20:07:02.614Z,6.97
2018-09-05T20:09:31.681Z,7.20
2018-09-05T20:12:00.913Z,6.70
2018-09-05T20:14:30.035Z,7.10
2018-09-05T20:16:59.517Z,6.90
2018-09-05T20:19:28.988Z,7.33
2018-09-05T20:21:58.202Z,7.33
2018-09-05T20:24:27.538Z,6.63
2018-09-05T20:26:56.801Z,7.50
2018-09-05T20:29:26.011Z,8.30
2018-09-05T20:31:55.184Z,8.70
2018-09-05T20:34:24.299Z,9.37
2018-09-05T20:36:53.903Z,10.40
2018-09-05T20:39:23.221Z,9.63
2018-09-05T20:41:52.484Z,9.67
2018-09-05T20:44:21.745Z,9.80
2018-09-05T20:46:51.040Z,9.47
2018-09-05T20:49:20.045Z,9.80
2018-09-05T20:51:49.287Z,10.17
2018-09-05T20:54:18.675Z,10.40
2018-09-05T20:56:47.905Z,10.30
2018-09-05T20:59:17.167Z,11.40
2018-09-05T21:01:46.177Z,11.27
2018-09-05T21:04:15.523Z,10.87
2018-09-05T21:06:44.761Z,10.80
2018-09-05T21:09:14.031Z,11.73
2018-09-05T21:11:43.159Z,11.10
2018-09-05T21:14:12.051Z,11.57
2018-09-05T21:16:41.062Z,11.43
2018-09-05T21:19:10.394Z,10.63
2018-09-05T21:21:39.599Z,10.93
2018-09-05T21:24:08.761Z,10.60
2018-09-05T21:26:38.218Z,10.60
2018-09-05T21:29:07.395Z,11.57
2018-09-05T21:31:36.589Z,10.50
2018-09-05T21:34:05.543Z,10.53
2018-09-05T21:36:34.794Z,11.03
2018-09-05T21:39:04.880Z,10.57
2018-09-05T21:41:34.075Z,10.70
2018-09-05T21:44:03.313Z,10.50
2018-09-05T21:46:32.705Z,11.03
2018-09-05T21:49:02.083Z,10.30
2018-09-05T21:51:31.274Z,10.90
2018-09-05T21:54:00.427Z,9.80
2018-09-05T21:56:29.648Z,10.30
2018-09-05T21:58:59.123Z,10.30
2018-09-05T22:01:28.399Z,10.23
2018-09-05T22:03:57.715Z,10.17
2018-09-05T22:06:26.684Z,11.10
2018-09-05T22:08:55.971Z,10.30
2018-09-05T22:11:26.433Z,9.97
2018-09-05T22:13:56.456Z,10.10
2018-09-05T22:16:25.895Z,10.47
2018-09-05T22:18:54.851Z,10.30
2018-09-05T22:21:24.092Z,10.30
2018-09-05T22:23:53.556Z,10.30
2018-09-05T22:26:22.376Z,10.67
2018-09-05T22:28:51.724Z,10.00
2018-09-05T22:31:20.805Z,10.07
2018-09-05T22:33:49.988Z,10.27
2018-09-05T22:36:19.365Z,10.50
2018-09-05T22:38:48.336Z,11.30
2018-09-05T22:41:17.545Z,10.87
2018-09-05T22:43:57.419Z,10.20
2018-09-05T22:46:37.460Z,10.30
2018-09-05T22:49:57.746Z,10.50
2018-09-05T22:53:08.022Z,10.20
2018-09-05T22:55:53.238Z,10.30
2018-09-05T22:58:36.838Z,11.57
2018-09-05T23:02:18.321Z,10.97
2018-09-05T23:04:57.379Z,10.63
2018-09-05T23:07:37.649Z,11.23
2018-09-05T23:10:17.698Z,10.47
2018-09-05T23:12:57.488Z,11.87
2018-09-05T23:15:37.314Z,10.80
2018-09-05T23:18:18.315Z,10.97
2018-09-05T23:21:25.448Z,10.97
2018-09-05T23:23:57.585Z,10.87
2018-09-05T23:26:27.139Z,10.97
2018-09-05T23:28:56.339Z,11.43
2018-09-05T23:31:25.501Z,10.47
2018-09-05T23:33:54.972Z,10.40
2018-09-05T23:36:24.595Z,10.73
2018-09-05T23:38:53.872Z,11.13
2018-09-05T23:41:23.212Z,11.20
2018-09-05T23:43:52.356Z,10.33
2018-09-05T23:46:21.315Z,10.80
2018-09-05T23:48:50.980Z,10.70
2018-09-05T23:51:20.280Z,11.10
2018-09-05T23:53:49.302Z,10.47
2018-09-05T23:56:18.627Z,10.43
2018-09-05T23:58:48.051Z,10.73
